Time;durP1;ratioP1;P1;durP2;ratioP2;P2;SDS_P1;SDS_P2;PMS_P1;PMS_P2;Temp;Humidity;BMP_temperature;BMP_pressure;BME280_temperature;BME280_humidity;BME280_pressure;Samples;Min_cycle;Max_cycle;Signal;HPM_P1;HPM_P2
2023/04/14 00:00:57;;;;;;;7.47;3.17;;;8.20;99.90;;;;;;5069811;28;20055;-82
2023/04/14 00:03:23;;;;;;;6.15;2.92;;;8.20;99.90;;;;;;5070579;28;20075;-82
2023/04/14 00:05:49;;;;;;;3.07;1.83;;;8.20;99.90;;;;;;5069920;28;20028;-83
2023/04/14 00:08:14;;;;;;;3.00;1.87;;;8.20;99.90;;;;;;5070701;28;20387;-83
2023/04/14 00:10:40;;;;;;;4.70;1.47;;;8.20;99.90;;;;;;5071544;28;20024;-82
2023/04/14 00:13:06;;;;;;;2.55;1.40;;;8.20;99.90;;;;;;5073408;28;20036;-82
2023/04/14 00:15:31;;;;;;;2.47;1.33;;;8.20;99.90;;;;;;5067035;28;20139;-82
2023/04/14 00:17:57;;;;;;;3.43;1.73;;;8.20;99.90;;;;;;5067472;28;20106;-82
2023/04/14 00:20:23;;;;;;;4.23;1.40;;;8.20;99.90;;;;;;5050704;28;20075;-81
2023/04/14 00:22:48;;;;;;;4.83;1.53;;;8.20;99.90;;;;;;5067173;28;20444;-83
2023/04/14 00:25:14;;;;;;;2.07;1.10;;;8.30;99.90;;;;;;5067165;28;20024;-82
2023/04/14 00:27:39;;;;;;;2.03;1.37;;;8.20;99.90;;;;;;5072977;28;20514;-82
2023/04/14 00:30:06;;;;;;;3.53;1.13;;;8.20;99.90;;;;;;5071051;28;20032;-83
2023/04/14 00:32:31;;;;;;;4.07;1.77;;;8.10;99.90;;;;;;5071321;28;20036;-82
2023/04/14 00:34:58;;;;;;;5.60;1.70;;;8.10;99.90;;;;;;5068378;28;20040;-83
2023/04/14 00:37:25;;;;;;;4.40;1.70;;;8.10;99.90;;;;;;5067539;28;20119;-83
2023/04/14 00:39:50;;;;;;;2.78;1.52;;;8.10;99.90;;;;;;5070409;28;20020;-80
2023/04/14 00:42:16;;;;;;;1.90;1.27;;;8.00;99.90;;;;;;5069075;28;20044;-81
2023/04/14 00:44:41;;;;;;;2.73;1.60;;;8.00;99.90;;;;;;5081877;28;20028;-82
2023/04/14 00:47:08;;;;;;;3.22;1.27;;;8.00;99.90;;;;;;5100188;28;20017;-82
2023/04/14 00:49:36;;;;;;;2.38;1.40;;;7.90;99.90;;;;;;5066742;28;20490;-83
2023/04/14 00:52:02;;;;;;;2.90;1.23;;;7.80;99.90;;;;;;5070656;28;20433;-82
2023/04/14 00:54:30;;;;;;;3.33;1.02;;;7.80;99.90;;;;;;5068935;28;20029;-81
2023/04/14 00:56:56;;;;;;;1.17;0.88;;;7.70;99.90;;;;;;5066463;28;20029;-82
2023/04/14 00:59:22;;;;;;;;;;;7.60;99.90;;;;;;5071649;28;20552;-83
2023/04/14 01:01:48;;;;;;;2.10;1.20;;;7.40;99.90;;;;;;5064859;28;19999;-82
2023/04/14 01:04:14;;;;;;;3.17;1.50;;;7.40;99.90;;;;;;5071653;28;20500;-82
2023/04/14 01:06:40;;;;;;;4.82;1.67;;;7.40;99.90;;;;;;5069012;28;20836;-83
2023/04/14 01:09:06;;;;;;;2.90;1.50;;;7.40;99.90;;;;;;5069747;28;20089;-81
2023/04/14 01:11:58;;;;;;;1.88;1.00;;;7.40;99.90;;;;;;5067350;28;20031;-83
2023/04/14 01:14:54;;;;;;;4.90;1.38;;;7.50;99.90;;;;;;5063778;28;20032;-82
2023/04/14 01:17:43;;;;;;;2.35;1.30;;;7.40;99.90;;;;;;5068358;28;20506;-79
2023/04/14 01:20:18;;;;;;;2.40;1.52;;;7.40;99.90;;;;;;5069305;28;20078;-79
2023/04/14 01:22:51;;;;;;;6.10;1.65;;;7.50;99.90;;;;;;5069651;28;20032;-79
2023/04/14 01:25:38;;;;;;;2.00;1.48;;;7.60;99.90;;;;;;5066421;28;20016;-81
2023/04/14 01:28:31;;;;;;;8.90;1.92;;;7.70;99.90;;;;;;5067384;28;20052;-79
2023/04/14 01:31:29;;;;;;;3.03;1.63;;;7.70;99.90;;;;;;5069856;28;20039;-80
2023/04/14 01:34:19;;;;;;;3.95;1.63;;;7.70;99.90;;;;;;5073448;28;20058;-79
2023/04/14 01:37:15;;;;;;;2.78;1.42;;;7.70;99.90;;;;;;5067600;28;20020;-80
2023/04/14 01:39:50;;;;;;;4.25;1.50;;;7.80;99.90;;;;;;5034576;28;20120;-81
2023/04/14 01:42:20;;;;;;;3.20;1.33;;;7.80;99.90;;;;;;5069504;28;20387;-80
2023/04/14 01:44:51;;;;;;;1.67;1.40;;;7.80;99.90;;;;;;5068877;28;20169;-80
2023/04/14 01:47:19;;;;;;;2.10;1.38;;;7.80;99.90;;;;;;5070378;28;20115;-79
2023/04/14 01:49:46;;;;;;;3.55;1.40;;;7.80;99.90;;;;;;5071708;28;20020;-78
2023/04/14 01:52:15;;;;;;;2.13;1.10;;;7.90;99.90;;;;;;5073929;28;20056;-82
2023/04/14 01:54:42;;;;;;;3.28;1.05;;;7.80;99.90;;;;;;5065450;28;20038;-83
2023/04/14 01:57:10;;;;;;;2.20;1.10;;;7.80;99.90;;;;;;5072318;28;20029;-81
2023/04/14 01:59:37;;;;;;;1.70;0.85;;;7.90;99.90;;;;;;5073807;28;20070;-83
2023/04/14 02:02:05;;;;;;;1.77;1.20;;;7.80;99.90;;;;;;5070599;28;20074;-82
2023/04/14 02:04:33;;;;;;;2.00;1.10;;;7.90;99.90;;;;;;5070135;28;20024;-83
2023/04/14 02:07:01;;;;;;;1.20;0.77;;;7.90;99.90;;;;;;5069795;28;20024;-83
2023/04/14 02:09:31;;;;;;;2.92;1.00;;;7.90;99.90;;;;;;5071028;28;20502;-82
2023/04/14 02:11:59;;;;;;;2.17;1.30;;;7.90;99.90;;;;;;5070076;28;20547;-82
2023/04/14 02:14:26;;;;;;;2.30;0.75;;;7.80;99.90;;;;;;5069975;28;20033;-83
2023/04/14 02:16:53;;;;;;;1.75;0.98;;;7.90;99.90;;;;;;5070699;28;20036;-82
2023/04/14 02:19:21;;;;;;;3.83;1.10;;;7.90;99.90;;;;;;5053836;28;20041;-81
2023/04/14 02:21:49;;;;;;;1.40;0.80;;;7.80;99.90;;;;;;5071676;28;20137;-82
2023/04/14 02:24:15;;;;;;;1.27;0.85;;;7.90;99.90;;;;;;5069280;28;20032;-80
2023/04/14 02:26:53;;;;;;;1.02;0.68;;;7.80;99.90;;;;;;5071363;28;20048;-81
2023/04/14 02:29:21;;;;;;;1.70;0.90;;;7.70;99.90;;;;;;5052257;28;20235;-82
2023/04/14 02:32:10;;;;;;;4.80;2.30;;;7.90;99.90;;;;;;5069354;28;20111;-81
2023/04/14 02:34:45;;;;;;;2.17;1.50;;;7.90;99.90;;;;;;5073470;28;20027;-81
2023/04/14 02:37:17;;;;;;;3.35;1.42;;;7.80;99.90;;;;;;5064116;28;20033;-80
2023/04/14 02:39:49;;;;;;;2.45;1.30;;;7.90;99.90;;;;;;5090196;28;20031;-82
2023/04/14 02:42:17;;;;;;;1.30;0.90;;;7.80;99.90;;;;;;5059240;28;20028;-80
2023/04/14 02:44:50;;;;;;;2.13;0.95;;;7.90;99.90;;;;;;5068103;28;20052;-81
2023/04/14 02:47:24;;;;;;;1.15;0.98;;;7.80;99.90;;;;;;5069317;28;20077;-82
2023/04/14 02:49:52;;;;;;;1.85;0.90;;;7.80;99.90;;;;;;5070393;28;20024;-80
2023/04/14 02:52:20;;;;;;;3.20;0.93;;;7.90;99.90;;;;;;5073779;28;20040;-81
2023/04/14 02:54:47;;;;;;;3.08;1.05;;;7.90;99.90;;;;;;5051591;28;20032;-81
2023/04/14 02:57:13;;;;;;;1.98;0.80;;;8.00;99.90;;;;;;5070225;28;20494;-80
2023/04/14 02:59:41;;;;;;;1.08;0.80;;;8.00;99.90;;;;;;5070769;28;20029;-80
2023/04/14 03:02:09;;;;;;;2.03;0.75;;;7.80;99.90;;;;;;5071969;28;20415;-81
2023/04/14 03:04:37;;;;;;;1.67;0.82;;;7.90;99.90;;;;;;5070426;28;20111;-81
2023/04/14 03:07:05;;;;;;;1.90;0.90;;;7.90;99.90;;;;;;5069970;28;20045;-80
2023/04/14 03:09:31;;;;;;;2.42;0.95;;;7.90;99.90;;;;;;5070463;28;20407;-82
2023/04/14 03:11:58;;;;;;;3.17;1.30;;;8.00;99.90;;;;;;5074785;28;20488;-81
2023/04/14 03:14:25;;;;;;;1.00;0.70;;;7.90;99.90;;;;;;5067629;28;20048;-81
2023/04/14 03:16:52;;;;;;;1.35;0.90;;;7.90;99.90;;;;;;5067301;28;20024;-81
2023/04/14 03:19:23;;;;;;;;;;;7.90;99.90;;;;;;5076425;28;20105;-81
2023/04/14 03:21:50;;;;;;;1.45;0.75;;;7.90;99.90;;;;;;5070715;28;20006;-82
2023/04/14 03:24:23;;;;;;;3.33;1.00;;;7.90;99.90;;;;;;5071873;28;20032;-81
2023/04/14 03:26:51;;;;;;;2.03;0.93;;;7.80;99.90;;;;;;5070872;28;20052;-78
2023/04/14 03:29:19;;;;;;;1.55;0.98;;;7.90;99.90;;;;;;5037987;28;20797;-81
2023/04/14 03:31:46;;;;;;;2.58;1.00;;;7.90;99.90;;;;;;5069034;28;20035;-81
2023/04/14 03:34:14;;;;;;;1.23;0.77;;;7.80;99.90;;;;;;5067689;28;20051;-80
2023/04/14 03:36:42;;;;;;;1.38;0.80;;;7.80;99.90;;;;;;5067680;28;20029;-80
2023/04/14 03:39:11;;;;;;;3.22;0.60;;;7.80;99.90;;;;;;5067166;28;20071;-81
2023/04/14 03:41:39;;;;;;;5.45;1.00;;;7.90;99.90;;;;;;5069453;28;20399;-82
2023/04/14 03:44:06;;;;;;;3.20;0.75;;;7.90;99.90;;;;;;5067646;28;20034;-82
2023/04/14 03:46:31;;;;;;;2.60;0.80;;;7.90;99.90;;;;;;5069546;28;20487;-80
2023/04/14 03:48:58;;;;;;;1.43;0.80;;;7.80;99.90;;;;;;5069206;28;20089;-81
2023/04/14 03:51:27;;;;;;;;;;;7.70;99.90;;;;;;5070539;28;20032;-79
2023/04/14 03:54:00;;;;;;;0.73;0.60;;;7.70;99.90;;;;;;5070618;28;19916;-81
2023/04/14 03:56:26;;;;;;;3.08;1.00;;;7.50;99.90;;;;;;5067894;28;20103;-78
2023/04/14 03:58:54;;;;;;;2.95;0.90;;;7.60;99.90;;;;;;5068725;28;20052;-78
2023/04/14 04:01:24;;;;;;;1.38;0.73;;;7.70;99.90;;;;;;5066054;28;20127;-82
2023/04/14 04:03:52;;;;;;;4.10;0.80;;;7.70;99.90;;;;;;5074808;28;20021;-82
2023/04/14 04:06:19;;;;;;;0.95;0.77;;;7.50;99.90;;;;;;5069611;28;20028;-82
2023/04/14 04:08:48;;;;;;;0.90;0.75;;;7.60;99.90;;;;;;5068736;28;20058;-83
2023/04/14 04:11:17;;;;;;;2.15;0.95;;;7.60;99.90;;;;;;5066498;28;20115;-80
2023/04/14 04:13:45;;;;;;;1.95;0.68;;;7.70;99.90;;;;;;5069358;28;20036;-82
2023/04/14 04:16:13;;;;;;;0.90;0.70;;;7.80;99.90;;;;;;5065105;28;20036;-83
2023/04/14 04:18:38;;;;;;;2.33;0.50;;;7.80;99.90;;;;;;5063854;28;20036;-84
2023/04/14 04:21:05;;;;;;;0.90;0.70;;;7.80;99.90;;;;;;5069265;28;20032;-80
2023/04/14 04:23:33;;;;;;;2.70;0.85;;;7.70;99.90;;;;;;5070464;28;20392;-82
2023/04/14 04:25:59;;;;;;;1.58;0.80;;;7.70;99.90;;;;;;5089186;28;20017;-83
2023/04/14 04:28:26;;;;;;;1.48;0.82;;;7.70;99.90;;;;;;5096439;28;20047;-80
2023/04/14 04:30:53;;;;;;;1.77;0.80;;;7.70;99.90;;;;;;5080020;28;20093;-79
2023/04/14 04:33:20;;;;;;;0.75;0.73;;;7.70;99.90;;;;;;5064930;28;20205;-81
2023/04/14 04:35:46;;;;;;;3.10;0.60;;;7.70;99.90;;;;;;5072687;28;20083;-84
2023/04/14 04:38:12;;;;;;;0.70;0.70;;;7.60;99.90;;;;;;5065332;28;20040;-80
2023/04/14 04:40:38;;;;;;;0.73;0.70;;;7.60;99.90;;;;;;5066212;28;20424;-81
2023/04/14 04:43:04;;;;;;;1.43;0.70;;;7.50;99.90;;;;;;5066486;28;20478;-81
2023/04/14 04:46:01;;;;;;;0.70;0.50;;;7.50;99.90;;;;;;5065898;28;20287;-80
2023/04/14 04:48:26;;;;;;;0.65;0.60;;;7.50;99.90;;;;;;5066135;28;20132;-80
2023/04/14 04:50:52;;;;;;;1.40;0.60;;;7.50;99.90;;;;;;5065778;28;20120;-80
2023/04/14 04:53:18;;;;;;;3.27;0.70;;;7.50;99.90;;;;;;5065544;28;20040;-79
2023/04/14 04:55:43;;;;;;;1.90;0.60;;;7.40;99.90;;;;;;5066443;28;20070;-82
2023/04/14 04:58:09;;;;;;;2.20;0.60;;;7.40;99.90;;;;;;5066075;28;20025;-82
2023/04/14 05:00:35;;;;;;;1.00;0.60;;;7.40;99.90;;;;;;5066966;28;20380;-82
2023/04/14 05:03:00;;;;;;;0.80;0.70;;;7.40;99.90;;;;;;5063656;28;20302;-82
2023/04/14 05:05:26;;;;;;;1.73;0.80;;;7.30;99.90;;;;;;5065659;28;20060;-82
2023/04/14 05:07:52;;;;;;;1.20;0.90;;;7.30;99.90;;;;;;5066160;28;20067;-81
2023/04/14 05:10:17;;;;;;;0.90;0.50;;;7.10;99.90;;;;;;5065223;28;20036;-84
2023/04/14 05:12:43;;;;;;;0.97;0.60;;;7.20;99.90;;;;;;5065778;28;20036;-83
2023/04/14 05:15:09;;;;;;;1.23;0.60;;;7.20;99.90;;;;;;5065724;28;20032;-83
2023/04/14 05:17:36;;;;;;;0.77;0.68;;;7.30;99.90;;;;;;5066635;28;20170;-81
2023/04/14 05:20:02;;;;;;;2.10;0.80;;;7.30;99.90;;;;;;5065544;28;20032;-81
2023/04/14 05:22:28;;;;;;;1.42;0.73;;;7.30;99.90;;;;;;5065041;28;20404;-81
2023/04/14 05:24:54;;;;;;;1.63;0.70;;;7.20;99.90;;;;;;5068574;28;20036;-81
2023/04/14 05:27:20;;;;;;;2.20;0.87;;;7.20;99.90;;;;;;5051647;28;20032;-83
2023/04/14 05:29:46;;;;;;;1.45;0.80;;;7.30;99.90;;;;;;5069478;28;20144;-80
2023/04/14 05:32:13;;;;;;;1.00;0.83;;;7.40;99.90;;;;;;5068920;28;20518;-82
2023/04/14 05:34:40;;;;;;;6.85;1.20;;;7.40;99.90;;;;;;5069797;28;20025;-83
2023/04/14 05:37:06;;;;;;;3.58;0.85;;;7.60;99.90;;;;;;5066826;28;20060;-81
2023/04/14 05:39:31;;;;;;;0.53;0.53;;;7.60;99.90;;;;;;5068682;28;20036;-82
2023/04/14 05:41:58;;;;;;;5.07;1.40;;;7.70;99.90;;;;;;5068150;28;20040;-78
2023/04/14 05:44:24;;;;;;;;;;;7.80;99.90;;;;;;5066430;28;20040;-83
2023/04/14 05:46:50;;;;;;;1.30;1.00;;;7.90;99.90;;;;;;5069254;28;20061;-79
2023/04/14 05:49:15;;;;;;;3.38;1.10;;;7.90;99.90;;;;;;5068766;28;20531;-76
2023/04/14 05:51:41;;;;;;;5.93;1.20;;;8.00;99.90;;;;;;5068722;28;20139;-78
2023/04/14 05:54:07;;;;;;;1.33;1.00;;;8.00;99.90;;;;;;5068429;28;20555;-78
2023/04/14 05:56:33;;;;;;;1.58;1.17;;;8.00;99.90;;;;;;5043638;28;20115;-76
2023/04/14 05:58:59;;;;;;;1.93;1.00;;;8.00;99.90;;;;;;5067521;28;20195;-73
2023/04/14 06:01:25;;;;;;;2.00;1.15;;;8.10;99.90;;;;;;5068222;28;20029;-73
2023/04/14 06:03:50;;;;;;;1.23;0.80;;;8.10;99.90;;;;;;5067435;28;20048;-78
2023/04/14 06:06:18;;;;;;;2.77;1.20;;;8.10;99.90;;;;;;5067685;28;20025;-75
2023/04/14 06:08:44;;;;;;;4.93;1.10;;;8.10;99.90;;;;;;5065769;28;20028;-74
2023/04/14 06:11:10;;;;;;;1.27;0.90;;;8.30;99.90;;;;;;5067018;28;20037;-77
2023/04/14 06:13:35;;;;;;;2.45;1.10;;;8.40;99.90;;;;;;5068218;28;20032;-77
2023/04/14 06:16:01;;;;;;;1.90;0.90;;;8.50;99.90;;;;;;5070341;28;20058;-79
2023/04/14 06:18:26;;;;;;;1.97;0.80;;;8.60;99.90;;;;;;5080359;28;20052;-75
2023/04/14 06:20:52;;;;;;;3.70;1.07;;;8.70;99.90;;;;;;5087574;28;20062;-79
2023/04/14 06:23:18;;;;;;;2.17;0.90;;;8.90;99.90;;;;;;5067604;28;20710;-78
2023/04/14 06:25:44;;;;;;;4.45;1.00;;;9.00;99.90;;;;;;5069023;28;20112;-79
2023/04/14 06:28:10;;;;;;;1.25;1.08;;;9.20;99.90;;;;;;5068518;28;20511;-78
2023/04/14 06:30:35;;;;;;;1.93;1.00;;;9.10;99.90;;;;;;5068336;28;20097;-78
2023/04/14 06:33:03;;;;;;;5.67;2.40;;;9.30;99.90;;;;;;5050349;28;20071;-79
2023/04/14 06:35:33;;;;;;;2.65;1.48;;;9.40;99.90;;;;;;5068117;28;20042;-81
2023/04/14 06:38:00;;;;;;;4.47;1.25;;;9.40;99.90;;;;;;5050005;28;20079;-81
2023/04/14 06:40:25;;;;;;;7.00;1.40;;;9.50;99.90;;;;;;5068212;28;20908;-80
2023/04/14 06:42:51;;;;;;;5.97;1.27;;;9.70;99.90;;;;;;5068814;28;20135;-76
2023/04/14 06:45:17;;;;;;;5.67;1.07;;;9.90;99.90;;;;;;5067794;28;20023;-81
2023/04/14 06:47:42;;;;;;;7.83;1.50;;;9.90;99.90;;;;;;5067320;28;20078;-76
2023/04/14 06:50:08;;;;;;;7.23;1.70;;;9.90;99.90;;;;;;5067301;28;20024;-76
2023/04/14 06:52:34;;;;;;;3.33;0.90;;;10.00;99.90;;;;;;5066654;28;20048;-80
2023/04/14 06:55:00;;;;;;;4.07;1.27;;;10.00;99.90;;;;;;5066499;28;20045;-82
2023/04/14 06:57:26;;;;;;;2.15;1.25;;;9.90;99.90;;;;;;5067710;28;20064;-80
2023/04/14 06:59:52;;;;;;;1.40;1.00;;;9.90;99.90;;;;;;5067102;28;20059;-77
2023/04/14 07:02:17;;;;;;;3.10;1.37;;;9.70;99.90;;;;;;5066857;28;20551;-75
2023/04/14 07:04:43;;;;;;;1.63;0.97;;;10.00;99.90;;;;;;5067351;28;20016;-78
2023/04/14 07:07:09;;;;;;;1.33;0.93;;;10.00;99.90;;;;;;5066749;28;20078;-76
2023/04/14 07:09:34;;;;;;;1.87;0.93;;;10.20;99.90;;;;;;5066740;28;20472;-76
2023/04/14 07:12:00;;;;;;;4.43;1.47;;;10.40;99.90;;;;;;5061855;28;20473;-76
2023/04/14 07:14:26;;;;;;;2.37;1.27;;;10.60;99.90;;;;;;5066118;28;20030;-76
2023/04/14 07:16:52;;;;;;;2.53;1.20;;;10.90;99.90;;;;;;5065736;28;20031;-75
2023/04/14 07:19:18;;;;;;;3.67;1.92;;;11.00;99.90;;;;;;5065439;28;20301;-76
2023/04/14 07:21:46;;;;;;;10.32;1.27;;;11.50;99.90;;;;;;5066529;28;20040;-76
2023/04/14 07:24:13;;;;;;;2.50;0.98;;;11.50;99.90;;;;;;5065332;28;20124;-76
2023/04/14 07:26:39;;;;;;;1.98;0.85;;;11.90;99.70;;;;;;5067175;28;20483;-73
2023/04/14 07:29:05;;;;;;;;;;;11.80;98.50;;;;;;5066769;28;20089;-76
2023/04/14 07:31:32;;;;;;;1.23;0.98;;;11.90;99.00;;;;;;5066647;28;19908;-71
2023/04/14 07:33:58;;;;;;;4.82;1.30;;;11.40;98.90;;;;;;5066355;28;20044;-75
2023/04/14 07:36:24;;;;;;;2.63;1.03;;;11.30;99.20;;;;;;5066415;28;20387;-77
2023/04/14 07:38:50;;;;;;;4.40;1.10;;;11.60;96.40;;;;;;5067068;28;20376;-76
2023/04/14 07:44:38;;;;;;;2.28;0.93;;;11.50;98.20;;;;;;5055370;28;20670;-75
2023/04/14 07:47:04;;;;;;;2.50;1.07;;;11.30;97.20;;;;;;5049895;28;20024;-75
2023/04/14 07:49:30;;;;;;;1.45;1.10;;;11.20;96.50;;;;;;5066154;28;20028;-76
2023/04/14 07:51:56;;;;;;;4.20;1.30;;;10.90;96.60;;;;;;5065917;28;20911;-84
2023/04/14 07:54:22;;;;;;;2.03;1.17;;;11.90;97.00;;;;;;5064791;28;20037;-79
2023/04/14 07:56:48;;;;;;;3.80;1.67;;;12.60;94.00;;;;;;5065565;28;20107;-82
2023/04/14 07:59:14;;;;;;;1.15;0.80;;;14.80;92.60;;;;;;5064579;28;20365;-78
2023/04/14 08:01:40;;;;;;;1.30;1.08;;;15.40;86.50;;;;;;5066037;28;20850;-79
2023/04/14 08:04:06;;;;;;;2.40;1.10;;;14.30;88.50;;;;;;5066517;28;20088;-78
2023/04/14 08:06:31;;;;;;;2.43;1.30;;;16.40;84.30;;;;;;5049721;28;20043;-78
2023/04/14 08:08:57;;;;;;;2.73;1.27;;;17.60;79.00;;;;;;5082839;28;20574;-80
2023/04/14 08:11:23;;;;;;;2.70;1.00;;;18.00;79.70;;;;;;5092172;28;20035;-80
2023/04/14 08:13:51;;;;;;;1.75;1.10;;;19.70;73.80;;;;;;5077472;28;20128;-79
2023/04/14 08:16:17;;;;;;;2.15;1.30;;;20.00;71.00;;;;;;5051087;28;20036;-81
2023/04/14 08:18:43;;;;;;;5.40;1.00;;;19.00;73.00;;;;;;5067690;28;20419;-82
2023/04/14 08:21:08;;;;;;;1.80;1.00;;;18.80;73.50;;;;;;5067973;28;20321;-79
2023/04/14 08:23:34;;;;;;;0.68;0.55;;;17.60;71.80;;;;;;5064085;28;20060;-79
2023/04/14 08:26:00;;;;;;;3.42;0.90;;;17.90;72.80;;;;;;5065184;28;20051;-80
2023/04/14 08:28:27;;;;;;;32.27;3.47;;;18.90;72.30;;;;;;5064285;28;20419;-77
2023/04/14 08:30:53;;;;;;;1.25;0.80;;;19.50;70.80;;;;;;5066918;28;20039;-77
2023/04/14 08:33:19;;;;;;;3.03;1.10;;;20.60;67.30;;;;;;5065122;28;20040;-72
2023/04/14 08:35:44;;;;;;;2.60;0.93;;;20.90;69.80;;;;;;5065737;28;20488;-75
2023/04/14 08:38:10;;;;;;;5.47;1.27;;;21.40;62.40;;;;;;5046151;28;20052;-75
2023/04/14 08:40:38;;;;;;;1.03;0.70;;;22.20;61.00;;;;;;5065127;28;20075;-74
2023/04/14 08:43:04;;;;;;;1.38;0.90;;;21.30;62.50;;;;;;5065983;28;20529;-76
2023/04/14 08:45:33;;;;;;;1.05;0.70;;;19.40;65.80;;;;;;5065783;28;20032;-79
2023/04/14 08:48:01;;;;;;;0.85;0.80;;;18.50;65.30;;;;;;5062306;28;20037;-77
2023/04/14 08:50:32;;;;;;;1.67;0.90;;;18.50;67.30;;;;;;5065585;28;20117;-78
2023/04/14 08:53:02;;;;;;;0.77;0.70;;;19.90;62.80;;;;;;5064647;28;20123;-76
2023/04/14 08:55:29;;;;;;;1.15;0.73;;;21.50;62.00;;;;;;5065707;28;20111;-76
2023/04/14 08:57:54;;;;;;;2.97;1.58;;;22.40;59.10;;;;;;5063939;28;20070;-71
2023/04/14 09:00:21;;;;;;;3.53;0.93;;;21.60;60.00;;;;;;5067375;28;20465;-69
2023/04/14 09:02:47;;;;;;;4.85;1.10;;;21.40;63.40;;;;;;5064693;28;20077;-71
2023/04/14 09:05:14;;;;;;;;;;;21.10;63.70;;;;;;5047368;28;20033;-66
2023/04/14 09:07:41;;;;;;;1.60;1.30;;;21.60;62.90;;;;;;5081286;28;19908;-72
2023/04/14 09:10:09;;;;;;;2.75;1.10;;;24.00;61.60;;;;;;5062664;28;20086;-72
2023/04/14 09:12:37;;;;;;;1.13;0.82;;;24.40;56.40;;;;;;5049416;28;20040;-68
2023/04/14 09:15:03;;;;;;;1.45;0.77;;;24.80;56.50;;;;;;5063414;28;20805;-70
2023/04/14 09:17:30;;;;;;;3.30;0.90;;;23.00;55.30;;;;;;5063497;28;20028;-69
2023/04/14 09:19:56;;;;;;;0.77;0.70;;;22.80;56.00;;;;;;5063483;28;20028;-66
2023/04/14 09:22:21;;;;;;;1.08;0.77;;;23.30;58.50;;;;;;5046676;28;20035;-67
2023/04/14 09:24:47;;;;;;;1.23;0.75;;;24.00;52.10;;;;;;5064449;28;20507;-67
2023/04/14 09:27:14;;;;;;;0.77;0.65;;;25.10;56.20;;;;;;5063657;28;20032;-72
2023/04/14 09:29:41;;;;;;;0.77;0.77;;;26.50;54.90;;;;;;5063613;28;20464;-67
2023/04/14 09:32:08;;;;;;;2.00;0.82;;;26.80;53.50;;;;;;5062866;28;20499;-66
2023/04/14 09:34:34;;;;;;;2.75;0.80;;;25.80;49.80;;;;;;5065377;28;20414;-69
2023/04/14 09:37:04;;;;;;;2.15;0.70;;;24.50;53.30;;;;;;5064131;28;20945;-70
2023/04/14 09:39:34;;;;;;;0.63;0.45;;;22.80;52.40;;;;;;5063789;28;20094;-69
2023/04/14 09:42:02;;;;;;;1.05;0.50;;;22.00;55.70;;;;;;5062730;28;20048;-69
2023/04/14 09:44:28;;;;;;;1.25;0.85;;;21.60;54.00;;;;;;5062606;28;20033;-72
2023/04/14 09:47:04;;;;;;;6.35;0.60;;;19.00;55.50;;;;;;5064080;28;20028;-70
2023/04/14 09:49:30;;;;;;;1.48;0.60;;;17.80;61.70;;;;;;5062213;28;20404;-69
2023/04/14 09:52:06;;;;;;;2.35;0.63;;;17.60;63.80;;;;;;5063552;28;20044;-71
2023/04/14 09:54:32;;;;;;;0.98;0.77;;;17.20;62.70;;;;;;5065634;28;20135;-71
2023/04/14 09:56:57;;;;;;;0.75;0.70;;;17.80;64.40;;;;;;5072586;28;20305;-67
2023/04/14 09:59:49;;;;;;;0.70;0.70;;;17.70;64.90;;;;;;5074195;28;20032;-69
2023/04/14 10:02:15;;;;;;;1.40;0.75;;;17.60;65.40;;;;;;5064672;28;20453;-67
2023/04/14 10:04:41;;;;;;;1.07;0.80;;;22.30;58.30;;;;;;5066939;28;20016;-69
2023/04/14 10:07:07;;;;;;;3.65;1.00;;;23.50;57.10;;;;;;5066016;28;20275;-68
2023/04/14 10:09:36;;;;;;;1.15;0.75;;;24.70;55.40;;;;;;5062671;28;20054;-70
2023/04/14 10:12:12;;;;;;;1.23;0.82;;;25.20;54.50;;;;;;5063528;28;20032;-71
2023/04/14 10:14:40;;;;;;;1.60;0.80;;;24.30;51.60;;;;;;5063669;28;20060;-73
2023/04/14 10:17:06;;;;;;;1.55;0.80;;;24.50;52.80;;;;;;5063616;28;20127;-71
2023/04/14 10:19:32;;;;;;;1.88;0.80;;;24.70;53.00;;;;;;5062616;28;20391;-73
2023/04/14 10:21:58;;;;;;;0.70;0.63;;;22.60;54.00;;;;;;5064722;28;20037;-74
2023/04/14 10:24:24;;;;;;;;;;;22.40;55.80;;;;;;5063800;28;20036;-69
2023/04/14 10:26:51;;;;;;;0.75;0.57;;;22.50;54.10;;;;;;5062298;28;20776;-69
2023/04/14 10:29:17;;;;;;;0.80;0.60;;;19.90;57.20;;;;;;5062024;28;20028;-65
2023/04/14 10:32:04;;;;;;;0.85;0.50;;;19.30;59.80;;;;;;5063042;28;20032;-69
2023/04/14 10:34:32;;;;;;;2.00;0.70;;;18.30;58.50;;;;;;5044261;28;20047;-69
2023/04/14 10:37:17;;;;;;;3.63;0.80;;;18.50;60.20;;;;;;5045647;28;20491;-69
2023/04/14 10:39:42;;;;;;;1.38;0.60;;;18.10;60.60;;;;;;5062107;28;20400;-70
2023/04/14 10:42:08;;;;;;;2.60;0.93;;;17.60;58.90;;;;;;5062266;28;20044;-76
2023/04/14 10:44:35;;;;;;;1.00;0.55;;;17.80;61.40;;;;;;5045881;28;20031;-68
2023/04/14 10:47:01;;;;;;;;;;;17.30;61.10;;;;;;5062214;28;20063;-73
2023/04/14 10:49:34;;;;;;;2.85;0.68;;;17.10;57.60;;;;;;5062202;28;19915;-72
2023/04/14 10:52:10;;;;;;;1.70;0.52;;;17.40;60.10;;;;;;5062764;28;20043;-68
2023/04/14 10:54:53;;;;;;;1.38;0.55;;;17.30;60.70;;;;;;5062909;28;20081;-71
2023/04/14 10:57:26;;;;;;;1.65;0.60;;;17.40;60.30;;;;;;5062278;28;20496;-71
2023/04/14 10:59:54;;;;;;;0.90;0.57;;;17.10;60.70;;;;;;5062072;28;20120;-70
2023/04/14 11:02:28;;;;;;;0.85;0.55;;;17.70;62.90;;;;;;5062292;28;20094;-70
2023/04/14 11:05:02;;;;;;;1.40;0.85;;;17.30;63.90;;;;;;5064327;28;20028;-73
2023/04/14 11:07:30;;;;;;;0.73;0.40;;;17.30;60.60;;;;;;5061457;28;20387;-74
2023/04/14 11:10:20;;;;;;;0.40;0.40;;;17.60;61.30;;;;;;5061729;28;20032;-68
2023/04/14 11:12:48;;;;;;;2.97;0.60;;;17.60;60.20;;;;;;5062936;28;20043;-68
2023/04/14 11:15:15;;;;;;;0.57;0.47;;;17.10;57.90;;;;;;5061547;28;20551;-69
2023/04/14 11:17:42;;;;;;;0.75;0.50;;;16.20;62.00;;;;;;5062308;28;21065;-70
2023/04/14 11:20:16;;;;;;;0.50;0.38;;;16.70;63.40;;;;;;5062604;28;20047;-69
2023/04/14 11:22:44;;;;;;;1.23;0.50;;;16.70;62.00;;;;;;5047264;28;20106;-70
2023/04/14 11:25:16;;;;;;;2.53;1.13;;;17.00;58.90;;;;;;5061924;28;20098;-71
2023/04/14 11:27:44;;;;;;;1.98;0.80;;;16.70;62.50;;;;;;5062032;28;20029;-71
2023/04/14 11:30:18;;;;;;;2.30;0.70;;;15.90;61.80;;;;;;5061305;28;20039;-73
2023/04/14 11:32:49;;;;;;;0.80;0.57;;;16.10;63.60;;;;;;5059767;28;20036;-67
2023/04/14 11:35:20;;;;;;;0.45;0.38;;;15.90;63.60;;;;;;5045585;28;20763;-72
2023/04/14 11:37:45;;;;;;;1.10;0.50;;;15.90;63.70;;;;;;5060187;28;20582;-72
2023/04/14 11:40:13;;;;;;;1.30;0.50;;;16.00;64.40;;;;;;5062317;28;20028;-71
2023/04/14 11:42:51;;;;;;;1.20;0.60;;;16.30;64.20;;;;;;5050814;28;20412;-71
2023/04/14 11:45:17;;;;;;;0.80;0.50;;;16.30;63.40;;;;;;5082685;28;20059;-73
2023/04/14 11:47:55;;;;;;;0.90;0.60;;;15.90;65.00;;;;;;5082077;28;20426;-69
2023/04/14 11:50:21;;;;;;;0.80;0.60;;;16.70;65.00;;;;;;5062361;28;20039;-73
2023/04/14 11:52:47;;;;;;;1.07;0.73;;;16.80;62.60;;;;;;5064005;28;20040;-73
2023/04/14 11:55:14;;;;;;;2.28;0.60;;;16.60;63.90;;;;;;5044657;28;20064;-70
2023/04/14 11:57:46;;;;;;;1.40;0.50;;;16.40;63.10;;;;;;5044468;28;20055;-74
2023/04/14 12:00:14;;;;;;;0.82;0.60;;;16.90;61.60;;;;;;5059903;28;20044;-74
2023/04/14 12:02:44;;;;;;;1.60;0.50;;;16.60;62.80;;;;;;5044824;28;20138;-72
2023/04/14 12:05:10;;;;;;;0.63;0.60;;;16.90;62.00;;;;;;5049809;28;20029;-74
2023/04/14 12:07:37;;;;;;;;;;;17.30;62.00;;;;;;5061621;28;20075;-71
2023/04/14 12:10:04;;;;;;;1.98;0.60;;;17.10;63.90;;;;;;5060100;28;19959;-72
2023/04/14 12:12:32;;;;;;;4.25;0.52;;;17.20;61.80;;;;;;5044151;28;20048;-71
2023/04/14 12:14:58;;;;;;;1.00;0.60;;;17.70;62.90;;;;;;5046156;28;20454;-74
2023/04/14 12:17:24;;;;;;;2.60;0.77;;;17.40;61.70;;;;;;5060456;28;20086;-70
2023/04/14 12:19:50;;;;;;;0.52;0.52;;;17.60;62.60;;;;;;5062515;28;20116;-73
2023/04/14 12:22:25;;;;;;;1.63;0.60;;;17.80;62.00;;;;;;5044560;28;20103;-74
2023/04/14 12:24:52;;;;;;;0.50;0.50;;;17.80;62.10;;;;;;5060487;28;20280;-74
2023/04/14 12:27:22;;;;;;;0.50;0.50;;;17.10;59.40;;;;;;5061932;28;20029;-72
2023/04/14 12:29:49;;;;;;;0.60;0.50;;;17.30;61.70;;;;;;5059864;28;20686;-73
2023/04/14 12:32:16;;;;;;;1.05;0.40;;;17.70;59.60;;;;;;5058199;28;20037;-71
2023/04/14 12:34:56;;;;;;;1.70;0.60;;;17.30;59.80;;;;;;5062037;28;20083;-72
2023/04/14 12:37:26;;;;;;;0.40;0.30;;;17.40;58.10;;;;;;5061670;28;20032;-75
2023/04/14 12:40:00;;;;;;;0.30;0.30;;;17.10;57.30;;;;;;5060999;28;20033;-72
2023/04/14 12:42:28;;;;;;;1.98;0.65;;;17.10;60.10;;;;;;5044976;28;20906;-71
2023/04/14 12:44:56;;;;;;;0.80;0.30;;;17.20;59.20;;;;;;5061395;28;20093;-70
2023/04/14 12:47:51;;;;;;;1.88;0.30;;;17.20;60.60;;;;;;5044955;28;20036;-71
2023/04/14 12:50:27;;;;;;;3.22;0.60;;;17.00;58.60;;;;;;5061246;28;20028;-72
2023/04/14 12:52:54;;;;;;;0.38;0.38;;;17.10;60.60;;;;;;5059419;28;20199;-71
2023/04/14 12:55:38;;;;;;;1.02;0.45;;;17.00;59.30;;;;;;5060516;28;20102;-72
2023/04/14 12:58:04;;;;;;;0.35;0.35;;;17.00;59.30;;;;;;5061003;28;20748;-74
2023/04/14 13:00:30;;;;;;;0.90;0.50;;;16.90;56.80;;;;;;5045582;28;20037;-75
2023/04/14 13:02:56;;;;;;;1.05;0.35;;;16.80;58.50;;;;;;5045103;28;20516;-77
2023/04/14 13:05:23;;;;;;;0.98;0.30;;;16.70;58.60;;;;;;5062355;28;20021;-75